createdAt,value
2022-08-19T00:02:39.260Z,12.07
2022-08-19T00:06:53.273Z,12.02
2022-08-19T00:10:55.329Z,12.55
2022-08-19T00:14:57.404Z,13.15
2022-08-19T00:18:59.859Z,12.43
2022-08-19T00:23:01.903Z,12.57
2022-08-19T00:27:25.810Z,12.45
2022-08-19T00:31:26.126Z,12.55
2022-08-19T00:35:28.464Z,11.70
2022-08-19T00:39:31.186Z,12.13
2022-08-19T00:43:34.063Z,12.40
2022-08-19T00:47:36.112Z,11.68
2022-08-19T00:51:39.949Z,12.18
2022-08-19T00:55:43.377Z,12.80
2022-08-19T01:00:01.048Z,12.35
2022-08-19T01:04:05.159Z,13.40
2022-08-19T01:08:08.029Z,13.23
2022-08-19T01:12:10.370Z,13.15
2022-08-19T01:16:14.896Z,12.80
2022-08-19T01:20:22.293Z,12.82
2022-08-19T01:24:24.354Z,12.93
2022-08-19T01:28:33.820Z,12.95
2022-08-19T01:32:41.386Z,13.30
2022-08-19T01:36:48.335Z,13.40
2022-08-19T01:40:50.465Z,12.40
2022-08-19T01:44:52.600Z,12.00
2022-08-19T01:48:54.652Z,12.85
2022-08-19T01:53:05.892Z,12.40
2022-08-19T01:57:13.209Z,12.43
2022-08-19T02:01:15.299Z,11.97
2022-08-19T02:05:18.938Z,11.65
2022-08-19T02:09:21.017Z,11.98
2022-08-19T02:13:26.452Z,10.93
2022-08-19T02:17:29.871Z,11.93
2022-08-19T02:21:32.403Z,10.55
2022-08-19T02:25:34.494Z,11.63
2022-08-19T02:29:36.542Z,12.00
2022-08-19T02:33:39.177Z,10.57
2022-08-19T02:38:03.266Z,11.38
2022-08-19T02:42:05.720Z,11.65
2022-08-19T02:46:21.702Z,11.82
2022-08-19T02:50:23.785Z,11.60
2022-08-19T02:54:26.488Z,10.95
2022-08-19T02:58:28.770Z,12.45
2022-08-19T03:02:31.532Z,12.00
2022-08-19T03:06:41.031Z,11.45
2022-08-19T03:10:48.445Z,12.13
2022-08-19T03:14:51.872Z,12.68
2022-08-19T03:18:54.996Z,12.45
2022-08-19T03:22:57.064Z,11.70
2022-08-19T03:26:59.616Z,12.23
2022-08-19T03:31:41.850Z,11.93
2022-08-19T03:35:37.650Z,13.00
2022-08-19T03:39:41.268Z,12.40
2022-08-19T03:43:47.495Z,12.77
2022-08-19T03:47:49.749Z,11.52
2022-08-19T03:51:52.277Z,13.07
2022-08-19T03:55:55.373Z,13.10
2022-08-19T04:00:12.718Z,11.95
2022-08-19T04:04:15.978Z,12.23
2022-08-19T04:08:21.082Z,12.57
2022-08-19T04:12:23.185Z,12.65
2022-08-19T04:16:35.097Z,12.73
2022-08-19T04:20:47.579Z,11.82
2022-08-19T04:24:49.647Z,12.32
2022-08-19T04:28:52.588Z,12.85
2022-08-19T04:32:54.797Z,11.80
2022-08-19T04:36:58.526Z,11.95
2022-08-19T04:41:19.447Z,12.40
2022-08-19T04:45:23.005Z,12.23
2022-08-19T04:49:26.529Z,12.45
2022-08-19T04:53:37.801Z,12.40
2022-08-19T04:57:41.507Z,11.55
2022-08-19T05:01:44.251Z,11.93
2022-08-19T05:05:49.348Z,12.60
2022-08-19T05:09:57.657Z,10.95
2022-08-19T05:14:01.421Z,10.75
2022-08-19T05:18:22.072Z,10.43
2022-08-19T05:22:35.476Z,9.75
2022-08-19T05:26:39.036Z,10.05
2022-08-19T05:30:47.318Z,10.85
2022-08-19T05:34:50.325Z,11.15
2022-08-19T05:38:54.099Z,11.50
2022-08-19T05:42:56.904Z,10.00
2022-08-19T05:47:00.431Z,10.82
2022-08-19T05:51:07.401Z,10.75
2022-08-19T05:55:10.300Z,10.57
2022-08-19T05:59:12.462Z,10.00
2022-08-19T06:03:14.510Z,8.85
2022-08-19T06:07:17.905Z,9.40
2022-08-19T06:11:35.628Z,8.05
2022-08-19T06:15:37.678Z,8.65
2022-08-19T06:19:40.951Z,8.90
2022-08-19T06:23:43.621Z,8.43
2022-08-19T06:28:13.431Z,7.88
2022-08-19T06:32:08.101Z,7.55
2022-08-19T06:36:30.636Z,7.30
2022-08-19T06:40:32.706Z,6.97
2022-08-19T06:44:37.298Z,6.70
2022-08-19T06:48:46.026Z,6.15
2022-08-19T06:52:48.751Z,6.03
2022-08-19T06:56:50.862Z,5.65
2022-08-19T07:00:52.909Z,5.75
2022-08-19T07:04:55.075Z,5.18
2022-08-19T07:08:58.995Z,5.05
2022-08-19T07:13:01.205Z,5.05
2022-08-19T07:17:04.260Z,5.20
2022-08-19T07:21:19.690Z,5.18
2022-08-19T07:25:22.810Z,4.70
2022-08-19T07:29:36.588Z,5.25
2022-08-19T07:33:41.885Z,4.53
2022-08-19T07:37:46.007Z,4.88
2022-08-19T07:41:49.280Z,5.15
2022-08-19T07:45:52.189Z,5.32
2022-08-19T07:49:54.265Z,6.25
2022-08-19T07:53:56.478Z,5.72
2022-08-19T07:57:58.665Z,5.68
2022-08-19T08:02:01.501Z,5.35
2022-08-19T08:06:22.325Z,5.00
2022-08-19T08:10:24.696Z,4.93
2022-08-19T08:14:48.511Z,5.63
2022-08-19T08:18:53.351Z,5.05
2022-08-19T08:23:14.583Z,5.10
2022-08-19T08:27:16.914Z,5.10
2022-08-19T08:31:21.058Z,4.80
2022-08-19T08:35:24.504Z,5.05
2022-08-19T08:39:26.545Z,5.53
2022-08-19T08:43:36.437Z,5.25
2022-08-19T08:47:42.438Z,6.53
2022-08-19T08:51:59.805Z,6.72
2022-08-19T08:56:07.078Z,6.03
2022-08-19T09:00:16.141Z,6.53
2022-08-19T09:04:18.848Z,5.82
2022-08-19T09:08:41.313Z,6.47
2022-08-19T09:12:55.359Z,5.65
2022-08-19T09:17:00.524Z,6.80
2022-08-19T09:21:03.125Z,7.25
2022-08-19T09:25:07.892Z,7.00
2022-08-19T09:29:11.343Z,7.57
2022-08-19T09:33:13.366Z,7.03
2022-08-19T09:37:15.675Z,7.07
2022-08-19T09:41:20.648Z,6.85
2022-08-19T09:45:23.224Z,7.40
2022-08-19T09:49:25.359Z,8.32
2022-08-19T09:53:27.447Z,8.02
2022-08-19T09:57:30.778Z,8.25
2022-08-19T10:01:33.879Z,7.90
2022-08-19T10:05:54.436Z,7.82
2022-08-19T10:09:57.556Z,9.02
2022-08-19T10:14:00.704Z,9.70
2022-08-19T10:18:02.782Z,9.82
2022-08-19T10:22:10.075Z,9.20
2022-08-19T10:26:23.095Z,9.20
2022-08-19T10:30:28.745Z,8.50
2022-08-19T10:34:32.006Z,9.10
2022-08-19T10:38:34.888Z,8.05
2022-08-19T10:42:37.061Z,9.05
2022-08-19T10:46:46.036Z,8.77
2022-08-19T10:51:08.748Z,10.18
2022-08-19T10:55:29.458Z,8.88
2022-08-19T10:59:35.976Z,8.13
2022-08-19T11:03:38.449Z,7.57
2022-08-19T11:07:41.260Z,7.65
2022-08-19T11:11:43.981Z,7.75
2022-08-19T11:15:48.389Z,6.88
2022-08-19T11:19:50.899Z,7.95
2022-08-19T11:23:55.744Z,7.70
2022-08-19T11:27:57.784Z,8.32
2022-08-19T11:32:00.228Z,8.27
2022-08-19T11:36:02.493Z,8.65
2022-08-19T11:40:06.397Z,8.52
2022-08-19T11:44:08.794Z,8.73
2022-08-19T11:48:11.104Z,8.27
2022-08-19T11:52:13.497Z,7.45
2022-08-19T11:56:15.667Z,8.02
2022-08-19T12:00:17.758Z,7.35
2022-08-19T12:04:19.852Z,7.00
2022-08-19T12:08:22.653Z,6.90
2022-08-19T12:12:25.706Z,7.15
2022-08-19T12:16:31.441Z,7.03
2022-08-19T12:20:40.599Z,6.85
2022-08-19T12:24:42.681Z,5.80
2022-08-19T12:28:45.581Z,5.00
2022-08-19T12:32:47.642Z,5.22
2022-08-19T12:36:50.734Z,5.32
2022-08-19T12:40:55.987Z,4.85
2022-08-19T12:45:00.439Z,5.05
2022-08-19T12:49:24.109Z,4.50
2022-08-19T12:53:25.492Z,5.03
2022-08-19T12:57:31.680Z,4.68
2022-08-19T13:01:35.582Z,4.35
2022-08-19T13:05:37.623Z,3.88
2022-08-19T13:09:42.039Z,3.70
2022-08-19T13:13:45.826Z,3.60
2022-08-19T13:17:52.926Z,3.35
2022-08-19T13:22:00.186Z,3.20
2022-08-19T13:26:06.723Z,3.10
2022-08-19T13:30:30.732Z,2.70
2022-08-19T13:34:36.493Z,2.70
2022-08-19T13:38:39.012Z,2.65
2022-08-19T13:42:41.986Z,3.17
2022-08-19T13:46:45.516Z,2.78
2022-08-19T13:50:50.517Z,2.92
2022-08-19T13:54:52.543Z,2.78
2022-08-19T13:58:54.621Z,2.90
2022-08-19T14:02:57.568Z,3.00
2022-08-19T14:06:59.646Z,2.90
2022-08-19T14:11:06.737Z,2.55
2022-08-19T14:15:10.754Z,2.80
2022-08-19T14:19:12.805Z,2.70
2022-08-19T14:23:14.888Z,2.58
2022-08-19T14:27:17.307Z,2.70
2022-08-19T14:31:20.911Z,2.85
2022-08-19T14:35:23.045Z,2.63
2022-08-19T14:39:25.150Z,3.00
2022-08-19T14:43:27.277Z,2.53
2022-08-19T14:47:29.333Z,2.80
2022-08-19T14:51:34.839Z,2.40
2022-08-19T14:55:37.102Z,2.65
2022-08-19T14:59:39.700Z,2.85
2022-08-19T15:03:42.264Z,2.30
2022-08-19T15:07:44.462Z,2.63
2022-08-19T15:11:46.669Z,2.63
2022-08-19T15:15:49.254Z,2.60
2022-08-19T15:19:51.346Z,2.40
2022-08-19T15:23:54.027Z,2.35
2022-08-19T15:27:56.350Z,2.30
2022-08-19T15:31:59.257Z,2.20
2022-08-19T15:36:01.379Z,2.25
2022-08-19T15:40:06.002Z,2.95
2022-08-19T15:44:14.872Z,2.70
2022-08-19T15:48:16.973Z,2.28
2022-08-19T15:52:20.869Z,2.60
2022-08-19T15:56:27.070Z,2.70
2022-08-19T16:00:52.732Z,2.63
2022-08-19T16:05:13.622Z,2.67
2022-08-19T16:09:16.864Z,2.80
2022-08-19T16:13:18.880Z,3.00
2022-08-19T16:17:21.018Z,2.92
2022-08-19T16:21:27.215Z,2.83
2022-08-19T16:25:29.909Z,3.50
2022-08-19T16:29:34.867Z,3.20
2022-08-19T16:33:41.514Z,3.10
2022-08-19T16:37:43.573Z,2.85
2022-08-19T16:41:46.330Z,3.30
2022-08-19T16:45:50.564Z,3.00
2022-08-19T16:49:55.417Z,3.22
2022-08-19T16:53:57.683Z,3.50
2022-08-19T16:58:04.364Z,3.30
2022-08-19T17:06:20.409Z,3.30
2022-08-19T17:10:23.233Z,3.05
2022-08-19T17:14:25.294Z,3.55
2022-08-19T17:18:27.505Z,3.20
2022-08-19T17:22:36.671Z,3.88
2022-08-19T17:26:39.120Z,3.58
2022-08-19T17:30:41.360Z,4.07
2022-08-19T17:34:44.164Z,4.18
2022-08-19T17:38:46.235Z,4.40
2022-08-19T17:42:48.587Z,4.53
2022-08-19T17:46:53.369Z,4.38
2022-08-19T17:50:55.687Z,4.05
2022-08-19T17:54:57.897Z,4.70
2022-08-19T17:59:01.768Z,4.07
2022-08-19T18:03:05.294Z,4.15
2022-08-19T18:07:09.420Z,4.50
2022-08-19T18:11:12.198Z,4.32
2022-08-19T18:15:14.836Z,4.10
2022-08-19T18:19:16.865Z,4.05
2022-08-19T18:23:44.176Z,4.30
2022-08-19T18:27:43.348Z,4.40
2022-08-19T18:31:45.426Z,4.03
2022-08-19T18:35:49.326Z,4.60
2022-08-19T18:40:10.102Z,4.57
2022-08-19T18:44:30.950Z,4.40
2022-08-19T18:48:51.802Z,4.50
2022-08-19T18:52:53.818Z,4.20
2022-08-19T18:56:56.041Z,4.15
2022-08-19T19:00:59.072Z,4.75
2022-08-19T19:05:05.165Z,4.75
2022-08-19T19:09:21.688Z,4.70
2022-08-19T19:13:23.824Z,4.70
2022-08-19T19:17:28.364Z,4.95
2022-08-19T19:21:34.413Z,4.70
2022-08-19T19:25:50.623Z,5.03
2022-08-19T19:29:53.505Z,4.53
2022-08-19T19:33:55.995Z,4.40
2022-08-19T19:37:58.699Z,5.18
2022-08-19T19:42:01.853Z,5.13
2022-08-19T19:46:04.021Z,4.75
2022-08-19T19:50:14.888Z,5.07
2022-08-19T19:54:23.360Z,5.05
2022-08-19T19:58:28.798Z,5.05
2022-08-19T20:02:31.265Z,4.57
2022-08-19T20:06:33.997Z,4.70
2022-08-19T20:10:36.064Z,4.82
2022-08-19T20:14:38.519Z,4.90
2022-08-19T20:18:41.178Z,4.90
2022-08-19T20:22:47.294Z,5.10
2022-08-19T20:26:53.410Z,4.70
2022-08-19T20:30:55.725Z,4.80
2022-08-19T20:34:59.186Z,4.80
2022-08-19T20:39:01.194Z,5.18
2022-08-19T20:43:08.776Z,4.63
2022-08-19T20:47:10.840Z,5.10
2022-08-19T20:51:14.029Z,4.78
2022-08-19T20:55:16.087Z,5.05
2022-08-19T20:59:21.644Z,4.80
2022-08-19T21:03:26.402Z,5.00
2022-08-19T21:07:38.936Z,5.05
2022-08-19T21:11:41.885Z,4.75
2022-08-19T21:15:44.460Z,4.57
2022-08-19T21:19:46.498Z,4.47
2022-08-19T21:23:49.661Z,4.38
2022-08-19T21:27:51.818Z,4.43
2022-08-19T21:31:53.852Z,4.60
2022-08-19T21:35:55.985Z,4.25
2022-08-19T21:39:58.172Z,4.07
2022-08-19T21:44:00.350Z,4.28
2022-08-19T21:48:02.560Z,3.95
2022-08-19T21:52:04.858Z,3.67
2022-08-19T21:56:07.361Z,4.30
2022-08-19T22:00:15.067Z,3.50
2022-08-19T22:04:20.151Z,3.67
2022-08-19T22:08:22.234Z,3.30
2022-08-19T22:12:28.118Z,3.38
2022-08-19T22:16:30.152Z,3.55
2022-08-19T22:20:32.307Z,3.13
2022-08-19T22:24:34.450Z,3.15
2022-08-19T22:28:36.725Z,3.17
2022-08-19T22:32:45.184Z,2.97
2022-08-19T22:36:47.220Z,3.15
2022-08-19T22:40:50.820Z,3.08
2022-08-19T22:44:52.892Z,2.90
2022-08-19T22:49:01.330Z,3.20
2022-08-19T22:53:06.180Z,2.80
2022-08-19T22:57:08.291Z,2.67
2022-08-19T23:01:14.756Z,2.65
2022-08-19T23:05:32.250Z,3.15
2022-08-19T23:09:37.632Z,2.75
2022-08-19T23:13:42.230Z,2.42
2022-08-19T23:17:44.693Z,2.75
2022-08-19T23:21:47.413Z,2.33
2022-08-19T23:25:49.496Z,2.50
2022-08-19T23:30:10.276Z,2.28
2022-08-19T23:34:12.390Z,2.78
2022-08-19T23:38:14.554Z,2.50
2022-08-19T23:42:17.135Z,2.30
2022-08-19T23:46:28.036Z,2.63
2022-08-19T23:50:30.913Z,2.78
2022-08-19T23:54:43.070Z,2.60
2022-08-19T23:58:47.099Z,2.28
